HTMU

Musoma Airport

Airport
ICAO code
HTMU
IATA Code
MUZ
Summary
ICAO Region
AFI
ICAO Territory
Location

Musoma, Mara Region

Serving
Musoma
Elevation
3783 ft
Coordinates
1° 30' 10" S , 33° 48' 8" E
KCC
Metar
Observation
HTMU 070700Z 00000KT 9999 FEW032 SCT100 26/15 Q1018
Station
Musoma
Date/Time
2022-10-07 07:00:00
Wind direction
Wind speed
00 kts
Lowest cloud amount
few clouds
Temperature
26°C
Dew point
15°C
Humidity
50%
QNH
1018 hPa
Weather condition
n/a

Musoma Airport is an airport in northern Tanzania serving Musoma and the surrounding Mara Region.

Climatology

Tropical Savanna climate (Köppen climate classification Aw)

Airport map

Aerial View

SKYbrary Partners:

Safety knowledge contributed by: